Wetterdaten: Woche 12.01.09 - 18.01.09 (KW3)
Datum Zeit Temperatur Luftfeuchte Luftdruck Niederschlag Windrichtung Wind
12.01.2009 00:00 -9,9 C 92 % 1033,8 hPa 0,0 l/m SW 1,1 km/h (0 Bft)
12.01.2009 01:00 -10,1 C 94 % 1033,5 hPa 0,0 l/m N 2,0 km/h (1 Bft)
12.01.2009 02:00 -10,0 C 93 % 1033,2 hPa 0,0 l/m N 0,3 km/h (0 Bft)
12.01.2009 03:00 -9,6 C 95 % 1032,8 hPa 0,0 l/m W-SW 1,2 km/h (1 Bft)
12.01.2009 04:00 -8,3 C 96 % 1032,6 hPa 0,0 l/m SW 4,5 km/h (1 Bft)
12.01.2009 05:00 -7,8 C 95 % 1032,4 hPa 0,0 l/m SW 3,1 km/h (1 Bft)
12.01.2009 06:00 -7,9 C 95 % 1032,2 hPa 0,0 l/m SW 3,6 km/h (1 Bft)
12.01.2009 07:00 -8,0 C 95 % 1032,1 hPa 0,0 l/m SW 5,5 km/h (1 Bft)
12.01.2009 08:00 -7,8 C 95 % 1032,0 hPa 0,0 l/m SW 4,7 km/h (1 Bft)
12.01.2009 09:00 -7,6 C 95 % 1032,1 hPa 0,0 l/m SW 4,0 km/h (1 Bft)
12.01.2009 10:00 -6,7 C 95 % 1032,2 hPa 0,0 l/m SW 5,1 km/h (1 Bft)
12.01.2009 11:00 -6,2 C 95 % 1031,8 hPa 0,0 l/m W-SW 7,5 km/h (2 Bft)
12.01.2009 12:00 -6,1 C 95 % 1030,8 hPa 0,0 l/m SW 10,2 km/h (2 Bft)
12.01.2009 13:00 -5,1 C 95 % 1029,8 hPa 0,2 l/m S-SW 8,3 km/h (2 Bft)
12.01.2009 14:00 -5,0 C 96 % 1029,3 hPa 0,0 l/m SW 11,4 km/h (2 Bft)
12.01.2009 15:00 -5,2 C 95 % 1029,0 hPa 0,0 l/m S-SW 10,9 km/h (2 Bft)
12.01.2009 16:00 -5,5 C 94 % 1028,9 hPa 0,0 l/m S-SW 10,2 km/h (2 Bft)
12.01.2009 17:00 -6,3 C 95 % 1028,8 hPa 0,0 l/m SW 9,0 km/h (2 Bft)
12.01.2009 18:00 -7,0 C 94 % 1028,5 hPa 0,0 l/m S 4,7 km/h (1 Bft)
12.01.2009 19:00 -7,7 C 94 % 1028,3 hPa 0,0 l/m SW 6,4 km/h (2 Bft)
12.01.2009 20:00 -7,8 C 95 % 1027,9 hPa 0,0 l/m SW 4,3 km/h (1 Bft)
12.01.2009 21:00 -7,7 C 95 % 1027,6 hPa 0,0 l/m S-SW 4,1 km/h (1 Bft)
12.01.2009 22:00 -7,8 C 95 % 1027,2 hPa 0,0 l/m S-SW 3,7 km/h (1 Bft)
12.01.2009 23:00 -7,9 C 95 % 1026,7 hPa 0,0 l/m S-SW 6,4 km/h (2 Bft)
13.01.2009 00:00 -7,9 C 95 % 1026,2 hPa 0,0 l/m S-SW 7,1 km/h (2 Bft)
13.01.2009 01:00 -8,1 C 95 % 1025,7 hPa 0,0 l/m S-SW 5,1 km/h (1 Bft)
13.01.2009 02:00 -8,2 C 95 % 1025,2 hPa 0,0 l/m S-SW 6,8 km/h (2 Bft)
13.01.2009 03:00 -8,1 C 95 % 1024,9 hPa 0,0 l/m S-SW 6,7 km/h (2 Bft)
13.01.2009 04:00 -7,8 C 95 % 1024,6 hPa 0,0 l/m S-SW 6,1 km/h (2 Bft)
13.01.2009 05:00 -7,9 C 95 % 1024,5 hPa 0,0 l/m S-SW 3,5 km/h (1 Bft)
13.01.2009 06:00 -8,1 C 95 % 1024,0 hPa 0,0 l/m N 2,1 km/h (1 Bft)
13.01.2009 07:00 -8,3 C 94 % 1023,4 hPa 0,0 l/m N 0,7 km/h (0 Bft)
13.01.2009 08:00 -8,8 C 93 % 1023,2 hPa 0,0 l/m N 0,5 km/h (0 Bft)
13.01.2009 09:00 -9,0 C 94 % 1022,8 hPa 0,0 l/m N 0,3 km/h (0 Bft)
13.01.2009 10:00 -8,3 C 95 % 1022,4 hPa 0,0 l/m N 0,0 km/h (0 Bft)
13.01.2009 11:00 -6,2 C 97 % 1021,8 hPa 0,0 l/m N 0,0 km/h (0 Bft)
13.01.2009 12:00 -3,5 C 98 % 1021,0 hPa 0,0 l/m W-NW 3,1 km/h (1 Bft)
13.01.2009 13:00 -1,3 C 97 % 1020,4 hPa 0,0 l/m SW 7,0 km/h (2 Bft)
13.01.2009 14:00 -0,7 C 90 % 1019,6 hPa 0,0 l/m SW 7,6 km/h (2 Bft)
13.01.2009 15:00 -1,3 C 89 % 1019,5 hPa 0,0 l/m S-SW 8,7 km/h (2 Bft)
13.01.2009 16:00 -2,1 C 90 % 1019,3 hPa 0,0 l/m S-SW 6,9 km/h (2 Bft)
13.01.2009 17:00 -3,7 C 90 % 1019,2 hPa 0,0 l/m N 1,6 km/h (1 Bft)
13.01.2009 18:00 -5,1 C 91 % 1018,8 hPa 0,0 l/m SW 0,5 km/h (0 Bft)
13.01.2009 19:00 -6,4 C 92 % 1018,9 hPa 0,0 l/m SW 2,1 km/h (1 Bft)
13.01.2009 20:00 -7,2 C 92 % 1018,5 hPa 0,0 l/m N 0,7 km/h (0 Bft)
13.01.2009 21:00 -8,0 C 92 % 1018,3 hPa 0,0 l/m N 0,4 km/h (0 Bft)
13.01.2009 22:00 -8,6 C 92 % 1017,8 hPa 0,0 l/m N 0,1 km/h (0 Bft)
13.01.2009 23:00 -9,2 C 91 % 1017,4 hPa 0,0 l/m N 0,1 km/h (0 Bft)
14.01.2009 00:00 -9,9 C 91 % 1017,1 hPa 0,0 l/m S-SW 1,6 km/h (1 Bft)
14.01.2009 01:00 -10,3 C 92 % 1017,1 hPa 0,0 l/m N 1,2 km/h (1 Bft)
14.01.2009 02:00 -10,3 C 92 % 1017,3 hPa 0,0 l/m N 0,4 km/h (0 Bft)
14.01.2009 03:00 -10,2 C 94 % 1017,0 hPa 0,0 l/m S-SW 3,2 km/h (1 Bft)
14.01.2009 04:00 -9,8 C 96 % 1017,3 hPa 0,0 l/m SW 5,5 km/h (1 Bft)
14.01.2009 05:00 -9,1 C 96 % 1017,3 hPa 0,0 l/m S 6,8 km/h (2 Bft)
14.01.2009 06:00 -8,0 C 97 % 1017,5 hPa 0,0 l/m S 5,5 km/h (1 Bft)
14.01.2009 07:00 -7,6 C 96 % 1017,8 hPa 0,0 l/m N 1,3 km/h (1 Bft)
14.01.2009 08:00 -7,5 C 96 % 1017,8 hPa 0,0 l/m S-SW 2,7 km/h (1 Bft)
14.01.2009 09:00 -6,7 C 97 % 1017,6 hPa 0,0 l/m SW 6,0 km/h (2 Bft)
14.01.2009 10:00 -5,8 C 97 % 1017,8 hPa 0,0 l/m SW 9,5 km/h (2 Bft)
14.01.2009 11:00 -4,8 C 97 % 1017,9 hPa 0,0 l/m S 6,8 km/h (2 Bft)
14.01.2009 12:00 -3,9 C 96 % 1017,5 hPa 0,0 l/m S-SW 5,1 km/h (1 Bft)
14.01.2009 13:00 -4,0 C 96 % 1016,9 hPa 0,0 l/m SW 4,5 km/h (1 Bft)
14.01.2009 14:00 -3,3 C 96 % 1016,8 hPa 0,0 l/m SW 4,3 km/h (1 Bft)
14.01.2009 15:00 -2,6 C 96 % 1017,0 hPa 0,0 l/m SW 4,5 km/h (1 Bft)
14.01.2009 16:00 -2,4 C 95 % 1017,3 hPa 0,0 l/m S-SW 3,5 km/h (1 Bft)
14.01.2009 17:00 -2,6 C 95 % 1017,9 hPa 0,0 l/m S-SW 3,9 km/h (1 Bft)
14.01.2009 18:00 -2,6 C 95 % 1018,4 hPa 0,0 l/m S-SW 2,9 km/h (1 Bft)
14.01.2009 19:00 -2,6 C 96 % 1018,8 hPa 0,0 l/m SW 2,8 km/h (1 Bft)
14.01.2009 20:00 -2,5 C 96 % 1019,0 hPa 0,0 l/m S-SW 2,5 km/h (1 Bft)
14.01.2009 21:00 -2,4 C 96 % 1019,1 hPa 0,0 l/m S-SW 1,2 km/h (1 Bft)
14.01.2009 22:00 -2,3 C 97 % 1019,2 hPa 0,0 l/m N 0,3 km/h (0 Bft)
14.01.2009 23:00 -2,2 C 97 % 1019,5 hPa 0,0 l/m N 0,1 km/h (0 Bft)
15.01.2009 00:00 -2,1 C 97 % 1019,7 hPa 0,0 l/m N 0,1 km/h (0 Bft)
15.01.2009 01:00 -2,1 C 97 % 1019,8 hPa 0,0 l/m N 0,0 km/h (0 Bft)
15.01.2009 02:00 -2,2 C 97 % 1019,7 hPa 0,0 l/m W-NW 0,8 km/h (0 Bft)
15.01.2009 03:00 -2,2 C 97 % 1019,9 hPa 0,0 l/m N 1,1 km/h (0 Bft)
15.01.2009 04:00 -2,0 C 97 % 1019,8 hPa 0,0 l/m NW 2,0 km/h (1 Bft)
15.01.2009 05:00 -1,9 C 97 % 1020,0 hPa 0,0 l/m N-NW 4,3 km/h (1 Bft)
15.01.2009 06:00 -1,8 C 97 % 1020,1 hPa 0,0 l/m NO 2,3 km/h (1 Bft)
15.01.2009 07:00 -1,6 C 97 % 1020,4 hPa 0,0 l/m N-NO 6,7 km/h (2 Bft)
15.01.2009 08:00 -1,2 C 98 % 1020,8 hPa 0,0 l/m O-NO 7,6 km/h (2 Bft)
15.01.2009 09:00 -0,9 C 98 % 1021,1 hPa 0,0 l/m NO 5,5 km/h (1 Bft)
15.01.2009 10:00 -0,6 C 97 % 1021,4 hPa 0,0 l/m NO 6,8 km/h (2 Bft)
15.01.2009 11:00 0,1 C 95 % 1021,1 hPa 0,0 l/m O-NO 5,9 km/h (2 Bft)
15.01.2009 12:00 0,9 C 91 % 1020,2 hPa 0,0 l/m O-SO 10,6 km/h (2 Bft)
15.01.2009 13:00 1,9 C 86 % 1019,5 hPa 0,0 l/m O-SO 8,4 km/h (2 Bft)
15.01.2009 14:00 2,3 C 84 % 1019,2 hPa 0,0 l/m O-NO 10,2 km/h (2 Bft)
15.01.2009 15:00 1,6 C 87 % 1019,3 hPa 0,0 l/m N 14,9 km/h (3 Bft)
15.01.2009 16:00 0,3 C 92 % 1019,6 hPa 0,0 l/m N-NO 16,1 km/h (3 Bft)
15.01.2009 17:00 -0,3 C 94 % 1020,1 hPa 0,0 l/m NO 11,8 km/h (2 Bft)
15.01.2009 18:00 -0,6 C 95 % 1020,8 hPa 0,0 l/m N-NO 10,6 km/h (2 Bft)
15.01.2009 19:00 -0,5 C 95 % 1021,3 hPa 0,0 l/m NO 8,9 km/h (2 Bft)
15.01.2009 20:00 -0,3 C 94 % 1021,7 hPa 0,0 l/m NO 6,0 km/h (2 Bft)
15.01.2009 21:00 -0,4 C 92 % 1021,9 hPa 0,0 l/m O-NO 6,4 km/h (2 Bft)
15.01.2009 22:00 -1,3 C 91 % 1022,1 hPa 0,0 l/m NO 2,3 km/h (1 Bft)
15.01.2009 23:00 -2,2 C 94 % 1022,4 hPa 0,0 l/m NO 2,0 km/h (1 Bft)
16.01.2009 00:00 -2,1 C 97 % 1022,5 hPa 0,0 l/m O 1,2 km/h (1 Bft)
16.01.2009 01:00 -1,7 C 96 % 1022,4 hPa 0,0 l/m N 1,7 km/h (1 Bft)
16.01.2009 02:00 -1,5 C 96 % 1022,8 hPa 0,0 l/m N 0,7 km/h (0 Bft)
16.01.2009 03:00 -1,3 C 95 % 1023,2 hPa 0,0 l/m S-SW 4,4 km/h (1 Bft)
16.01.2009 04:00 -1,3 C 95 % 1023,3 hPa 0,0 l/m SW 5,1 km/h (1 Bft)
16.01.2009 05:00 -1,6 C 95 % 1023,3 hPa 0,0 l/m SW 4,1 km/h (1 Bft)
16.01.2009 06:00 -1,6 C 95 % 1023,6 hPa 0,0 l/m S 2,7 km/h (1 Bft)
16.01.2009 07:00 -1,6 C 95 % 1024,1 hPa 0,0 l/m SW 5,3 km/h (1 Bft)
16.01.2009 08:00 -1,5 C 95 % 1024,6 hPa 0,0 l/m SW 8,3 km/h (2 Bft)
16.01.2009 09:00 -1,2 C 95 % 1024,9 hPa 0,0 l/m SW 10,3 km/h (2 Bft)
16.01.2009 10:00 -0,8 C 94 % 1025,2 hPa 0,0 l/m SW 10,6 km/h (2 Bft)
16.01.2009 11:00 -0,4 C 93 % 1025,2 hPa 0,0 l/m W-SW 9,8 km/h (2 Bft)
16.01.2009 12:00 -0,2 C 92 % 1025,0 hPa 0,0 l/m SW 9,1 km/h (2 Bft)
16.01.2009 13:00 0,0 C 91 % 1024,7 hPa 0,0 l/m SW 8,7 km/h (2 Bft)
16.01.2009 14:00 0,1 C 91 % 1024,3 hPa 0,0 l/m SW 10,5 km/h (2 Bft)
16.01.2009 15:00 -0,1 C 91 % 1024,3 hPa 0,2 l/m S-SW 9,0 km/h (2 Bft)
16.01.2009 16:00 -0,4 C 92 % 1024,8 hPa 0,0 l/m S-SW 7,6 km/h (2 Bft)
16.01.2009 17:00 -1,1 C 93 % 1025,1 hPa 0,0 l/m S-SW 4,7 km/h (1 Bft)
16.01.2009 18:00 -1,8 C 93 % 1025,2 hPa 0,0 l/m N 1,5 km/h (1 Bft)
16.01.2009 19:00 -2,6 C 94 % 1025,2 hPa 0,0 l/m N 1,9 km/h (1 Bft)
16.01.2009 20:00 -3,2 C 95 % 1025,1 hPa 0,0 l/m S-SW 2,7 km/h (1 Bft)
16.01.2009 21:00 -3,2 C 97 % 1024,9 hPa 0,0 l/m S-SW 3,7 km/h (1 Bft)
16.01.2009 22:00 -3,3 C 98 % 1024,8 hPa 0,0 l/m SW 2,7 km/h (1 Bft)
16.01.2009 23:00 -3,6 C 98 % 1024,6 hPa 0,0 l/m SW 2,7 km/h (1 Bft)
17.01.2009 00:00 -3,9 C 98 % 1024,4 hPa 0,0 l/m N 2,3 km/h (1 Bft)
17.01.2009 01:00 -4,2 C 98 % 1024,3 hPa 0,0 l/m N 1,6 km/h (1 Bft)
17.01.2009 02:00 -4,5 C 97 % 1024,7 hPa 0,0 l/m S-SW 4,7 km/h (1 Bft)
17.01.2009 03:00 -4,5 C 98 % 1024,8 hPa 0,0 l/m S-SW 6,9 km/h (2 Bft)
17.01.2009 04:00 -4,5 C 97 % 1024,4 hPa 0,0 l/m S-SW 7,9 km/h (2 Bft)
17.01.2009 05:00 -4,2 C 98 % 1024,1 hPa 0,0 l/m S-SW 5,5 km/h (1 Bft)
17.01.2009 06:00 -4,2 C 97 % 1024,1 hPa 0,0 l/m SW 4,7 km/h (1 Bft)
17.01.2009 07:00 -4,1 C 97 % 1024,1 hPa 0,0 l/m SW 3,7 km/h (1 Bft)
17.01.2009 08:00 -3,9 C 97 % 1024,3 hPa 0,0 l/m SW 5,9 km/h (2 Bft)
17.01.2009 09:00 -3,6 C 98 % 1024,5 hPa 0,0 l/m SW 7,1 km/h (2 Bft)
17.01.2009 10:00 -2,7 C 98 % 1024,6 hPa 0,0 l/m SW 8,8 km/h (2 Bft)
17.01.2009 11:00 -2,1 C 98 % 1024,6 hPa 0,0 l/m S-SW 11,3 km/h (2 Bft)
17.01.2009 12:00 -1,8 C 98 % 1024,2 hPa 0,0 l/m S 12,1 km/h (2 Bft)
17.01.2009 13:00 -1,4 C 97 % 1023,8 hPa 0,0 l/m S-SO 12,4 km/h (3 Bft)
17.01.2009 14:00 -0,9 C 95 % 1023,3 hPa 0,0 l/m S 12,3 km/h (3 Bft)
17.01.2009 15:00 -0,8 C 94 % 1022,8 hPa 0,0 l/m S 12,0 km/h (2 Bft)
17.01.2009 16:00 -1,1 C 94 % 1022,4 hPa 0,0 l/m S 11,4 km/h (2 Bft)
17.01.2009 17:00 -1,9 C 95 % 1022,5 hPa 0,2 l/m SO 8,0 km/h (2 Bft)
17.01.2009 18:00 -2,3 C 95 % 1022,8 hPa 0,0 l/m SO 5,2 km/h (1 Bft)
17.01.2009 19:00 -2,4 C 96 % 1022,8 hPa 0,0 l/m S-SO 8,7 km/h (2 Bft)
17.01.2009 20:00 -1,9 C 96 % 1022,5 hPa 0,0 l/m SW 8,4 km/h (2 Bft)
17.01.2009 21:00 -1,3 C 94 % 1021,9 hPa 0,0 l/m S 11,0 km/h (2 Bft)
17.01.2009 22:00 -1,8 C 94 % 1021,4 hPa 0,0 l/m S-SO 3,1 km/h (1 Bft)
17.01.2009 23:00 -2,8 C 93 % 1020,8 hPa 0,0 l/m N 0,9 km/h (0 Bft)
18.01.2009 00:00 -3,9 C 93 % 1019,8 hPa 0,0 l/m N 0,3 km/h (0 Bft)
18.01.2009 01:00 -4,6 C 94 % 1019,0 hPa 0,0 l/m N 0,1 km/h (0 Bft)
18.01.2009 02:00 -5,1 C 94 % 1018,8 hPa 0,0 l/m N 0,0 km/h (0 Bft)
18.01.2009 03:00 -5,6 C 94 % 1018,4 hPa 0,0 l/m N 0,8 km/h (0 Bft)
18.01.2009 04:00 -5,8 C 95 % 1017,2 hPa 0,0 l/m N 0,0 km/h (0 Bft)
18.01.2009 05:00 -6,2 C 94 % 1016,2 hPa 0,0 l/m NO 0,5 km/h (0 Bft)
18.01.2009 06:00 -6,3 C 95 % 1014,7 hPa 0,0 l/m N 1,2 km/h (1 Bft)
18.01.2009 07:00 -5,9 C 96 % 1013,9 hPa 0,0 l/m N 0,5 km/h (0 Bft)
18.01.2009 08:00 -4,9 C 97 % 1012,4 hPa 0,0 l/m SW 6,6 km/h (2 Bft)
18.01.2009 09:00 -0,7 C 91 % 1011,2 hPa 0,0 l/m SW 19,6 km/h (3 Bft)
18.01.2009 10:00 -0,0 C 88 % 1010,5 hPa 0,0 l/m O 6,6 km/h (2 Bft)
18.01.2009 11:00 -0,1 C 90 % 1009,3 hPa 0,0 l/m O 6,8 km/h (2 Bft)
18.01.2009 12:00 2,1 C 82 % 1008,6 hPa 0,0 l/m SW 16,5 km/h (3 Bft)
18.01.2009 13:00 2,7 C 85 % 1008,0 hPa 0,0 l/m SW 28,4 km/h (4 Bft)
18.01.2009 14:00 4,2 C 85 % 1007,4 hPa 0,0 l/m W-SW 33,3 km/h (5 Bft)
18.01.2009 15:00 3,3 C 90 % 1006,7 hPa 1,0 l/m SW 22,8 km/h (4 Bft)
18.01.2009 16:00 2,4 C 94 % 1007,2 hPa 1,0 l/m SW 24,1 km/h (4 Bft)
18.01.2009 17:00 2,6 C 94 % 1007,2 hPa 0,4 l/m W-SW 35,1 km/h (5 Bft)
18.01.2009 18:00 2,5 C 94 % 1008,1 hPa 1,4 l/m W-SW 31,5 km/h (5 Bft)
18.01.2009 19:00 1,5 C 95 % 1009,3 hPa 0,2 l/m SW 21,4 km/h (4 Bft)
18.01.2009 20:00 1,6 C 96 % 1010,2 hPa 0,0 l/m W-SW 20,2 km/h (4 Bft)
18.01.2009 21:00 2,0 C 94 % 1011,1 hPa 0,0 l/m W-SW 18,2 km/h (3 Bft)
18.01.2009 22:00 1,7 C 94 % 1012,6 hPa 2,0 l/m W-SW 22,4 km/h (4 Bft)
18.01.2009 23:00 1,3 C 95 % 1013,2 hPa 0,4 l/m W-SW 18,2 km/h (3 Bft)
Min-Datum _ 14.01.09 18.01.09 18.01.09 - - 12.01.09
_ Min-Zeit 01:25 12:40 15:25 - - 00:00
Minimum _ -10,4 C 78 % 1006,3 hPa - - 0,0 km/h (0 Bft)
Max-Datum _ 18.01.09 12.01.09 12.01.09 18.01.09 - 18.01.09
_ Max-Zeit 14:05 14:10 00:00 22:10 - 13:40
Maximum _ 4,3 C 100 % 1034,1 hPa 2,0 l/m - 46,7 km/h
W (6 Bft)
Durchschnitt _ -3,6 C 94 % 1021,5 hPa #7,0 l/m SW 6,5 km/h (2 Bft)